createdAt,value
2023-05-15T00:00:44.576Z,94622.66
2023-05-15T00:02:46.796Z,94618.41
2023-05-15T00:04:48.527Z,94615.59
2023-05-15T00:06:50.261Z,94605.09
2023-05-15T00:08:51.711Z,94588.84
2023-05-15T00:11:01.560Z,94597.78
2023-05-15T00:13:03.684Z,94614.91
2023-05-15T00:15:05.454Z,94630.19
2023-05-15T00:17:07.870Z,94636.97
2023-05-15T00:19:09.342Z,94642.22
2023-05-15T00:21:10.822Z,94637.97
2023-05-15T00:23:12.296Z,94645.03
2023-05-15T00:25:13.797Z,94638.31
2023-05-15T00:27:15.486Z,94631.91
2023-05-15T00:29:16.960Z,94619.63
2023-05-15T00:31:18.480Z,94624.88
2023-05-15T00:33:19.987Z,94628.78
2023-05-15T00:35:21.455Z,94642.22
2023-05-15T00:37:23.468Z,94639.47
2023-05-15T00:39:24.968Z,94649.09
2023-05-15T00:41:28.742Z,94631.41
2023-05-15T00:43:30.476Z,94627.16
2023-05-15T00:45:32.005Z,94629.28
2023-05-15T00:47:33.485Z,94647.47
2023-05-15T00:49:35.751Z,94644.38
2023-05-15T00:51:37.420Z,94638.28
2023-05-15T00:53:38.979Z,94640.25
2023-05-15T00:55:40.734Z,94639.94
2023-05-15T00:57:42.566Z,94628.75
2023-05-15T00:59:43.997Z,94623.50
2023-05-15T01:01:45.550Z,94630.72
2023-05-15T01:03:47.003Z,94637.25
2023-05-15T01:05:48.494Z,94629.25
2023-05-15T01:07:55.115Z,94633.22
2023-05-15T01:09:56.560Z,94637.31
2023-05-15T01:11:58.035Z,94638.13
2023-05-15T01:13:59.537Z,94627.47
2023-05-15T01:16:00.974Z,94620.94
2023-05-15T01:18:03.442Z,94623.22
2023-05-15T01:20:06.483Z,94611.75
2023-05-15T01:22:11.412Z,94617.16
2023-05-15T01:24:21.850Z,94618.97
2023-05-15T01:26:29.213Z,94600.94
2023-05-15T01:28:38.533Z,94597.97
2023-05-15T01:30:41.571Z,94586.03
2023-05-15T01:32:55.345Z,94596.97
2023-05-15T01:35:11.220Z,94599.59
2023-05-15T01:37:12.767Z,94604.19
2023-05-15T01:39:14.346Z,94602.56
2023-05-15T01:41:18.898Z,94589.31
2023-05-15T01:43:22.459Z,94584.84
2023-05-15T01:45:24.508Z,94581.88
2023-05-15T01:47:53.199Z,94588.09
2023-05-15T01:49:54.714Z,94594.31
2023-05-15T01:51:58.739Z,94587.09
2023-05-15T01:54:00.539Z,94575.28
2023-05-15T01:56:02.489Z,94582.50
2023-05-15T01:58:03.992Z,94586.59
2023-05-15T02:00:05.854Z,94590.53
2023-05-15T02:02:07.448Z,94593.31
2023-05-15T02:04:08.916Z,94602.81
2023-05-15T02:06:10.438Z,94592.97
2023-05-15T02:08:11.968Z,94595.28
2023-05-15T02:10:13.495Z,94605.41
2023-05-15T02:12:14.909Z,94602.97
2023-05-15T02:14:17.264Z,94599.91
2023-05-15T02:16:18.747Z,94603.72
2023-05-15T02:18:20.644Z,94593.41
2023-05-15T02:20:22.098Z,94594.06
2023-05-15T02:22:23.520Z,94601.09
2023-05-15T02:24:25.011Z,94595.81
2023-05-15T02:26:31.015Z,94589.75
2023-05-15T02:28:36.633Z,94580.56
2023-05-15T02:30:38.162Z,94576.63
2023-05-15T02:32:58.459Z,94572.69
2023-05-15T02:35:19.475Z,94558.56
2023-05-15T02:37:21.434Z,94567.09
2023-05-15T02:39:25.111Z,94561.00
2023-05-15T02:41:26.669Z,94579.03
2023-05-15T02:43:28.167Z,94582.66
2023-05-15T02:45:29.686Z,94583.63
2023-05-15T02:47:31.241Z,94592.31
2023-05-15T02:49:32.831Z,94590.69
2023-05-15T02:51:34.256Z,94571.66
2023-05-15T02:53:41.908Z,94561.69
2023-05-15T02:55:43.477Z,94555.47
2023-05-15T02:57:44.975Z,94550.69
2023-05-15T02:59:46.426Z,94554.31
2023-05-15T03:01:48.100Z,94560.19
2023-05-15T03:03:49.684Z,94562.97
2023-05-15T03:05:51.250Z,94566.88
2023-05-15T03:07:52.694Z,94577.84
2023-05-15T03:09:54.193Z,94578.34
2023-05-15T03:11:55.662Z,94586.72
2023-05-15T03:15:58.544Z,94580.81
2023-05-15T03:18:00.020Z,94574.56
2023-05-15T03:20:01.535Z,94579.00
2023-05-15T03:22:03.035Z,94573.75
2023-05-15T03:24:04.656Z,94580.78
2023-05-15T03:26:06.123Z,94583.41
2023-05-15T03:28:07.593Z,94580.78
2023-05-15T03:30:09.366Z,94576.38
2023-05-15T03:32:10.930Z,94572.75
2023-05-15T03:34:12.427Z,94570.75
2023-05-15T03:36:13.889Z,94555.81
2023-05-15T03:38:15.404Z,94560.41
2023-05-15T03:40:16.971Z,94560.63
2023-05-15T03:42:23.673Z,94568.13
2023-05-15T03:44:25.160Z,94566.16
2023-05-15T03:46:26.647Z,94545.16
2023-05-15T03:48:28.221Z,94557.66
2023-05-15T03:50:29.640Z,94566.19
2023-05-15T03:52:31.194Z,94571.97
2023-05-15T03:54:32.762Z,94571.81
2023-05-15T03:56:34.252Z,94568.25
2023-05-15T03:58:35.769Z,94566.44
2023-05-15T04:00:37.244Z,94575.97
2023-05-15T04:02:38.945Z,94578.88
2023-05-15T04:04:40.556Z,94564.44
2023-05-15T04:06:41.983Z,94582.31
2023-05-15T04:08:43.457Z,94575.09
2023-05-15T04:10:44.915Z,94574.94
2023-05-15T04:12:46.417Z,94581.81
2023-05-15T04:14:47.878Z,94580.34
2023-05-15T04:16:49.393Z,94586.22
2023-05-15T04:18:50.947Z,94597.88
2023-05-15T04:20:52.835Z,94593.41
2023-05-15T04:22:54.271Z,94599.94
2023-05-15T04:24:55.742Z,94591.56
2023-05-15T04:26:57.294Z,94582.84
2023-05-15T04:29:03.850Z,94579.25
2023-05-15T04:31:06.088Z,94584.63
2023-05-15T04:33:07.865Z,94581.34
2023-05-15T04:35:10.650Z,94576.38
2023-05-15T04:37:12.255Z,94562.91
2023-05-15T04:39:13.852Z,94572.09
2023-05-15T04:41:15.337Z,94548.88
2023-05-15T04:43:16.924Z,94541.66
2023-05-15T04:45:18.417Z,94540.84
2023-05-15T04:47:20.051Z,94557.41
2023-05-15T04:49:21.475Z,94567.59
2023-05-15T04:51:22.894Z,94575.28
2023-05-15T04:53:24.455Z,94565.63
2023-05-15T04:55:25.998Z,94569.69
2023-05-15T04:57:28.037Z,94570.56
2023-05-15T04:59:29.876Z,94570.72
2023-05-15T05:01:31.398Z,94567.94
2023-05-15T05:03:32.973Z,94557.25
2023-05-15T05:05:34.462Z,94542.31
2023-05-15T05:07:35.959Z,94541.66
2023-05-15T05:09:38.487Z,94543.47
2023-05-15T05:11:43.665Z,94543.63
2023-05-15T05:13:45.117Z,94546.25
2023-05-15T05:15:46.613Z,94541.00
2023-05-15T05:17:48.169Z,94552.00
2023-05-15T05:19:49.666Z,94549.66
2023-05-15T05:21:51.152Z,94536.88
2023-05-15T05:23:52.662Z,94543.81
2023-05-15T05:25:54.126Z,94550.41
2023-05-15T05:27:55.701Z,94562.25
2023-05-15T05:29:57.224Z,94571.31
2023-05-15T05:31:58.864Z,94552.84
2023-05-15T05:34:00.433Z,94548.75
2023-05-15T05:36:01.971Z,94547.78
2023-05-15T05:38:03.469Z,94550.41
2023-05-15T05:40:06.561Z,94548.88
2023-05-15T05:42:08.064Z,94548.00
2023-05-15T05:44:09.547Z,94549.25
2023-05-15T05:46:11.013Z,94550.47
2023-05-15T05:48:13.542Z,94543.63
2023-05-15T05:50:15.019Z,94549.50
2023-05-15T05:52:16.769Z,94552.50
2023-05-15T05:54:18.613Z,94550.78
2023-05-15T05:56:20.076Z,94546.56
2023-05-15T05:58:25.572Z,94551.94
2023-05-15T06:00:27.822Z,94555.03
2023-05-15T06:02:29.451Z,94553.31
2023-05-15T06:04:31.678Z,94554.63
2023-05-15T06:06:33.833Z,94561.31
2023-05-15T06:08:35.344Z,94557.47
2023-05-15T06:10:36.819Z,94565.28
2023-05-15T06:12:38.374Z,94556.34
2023-05-15T06:14:39.825Z,94549.09
2023-05-15T06:16:41.289Z,94541.66
2023-05-15T06:18:42.937Z,94547.50
2023-05-15T06:20:44.436Z,94546.16
2023-05-15T06:22:45.894Z,94542.50
2023-05-15T06:24:47.329Z,94547.78
2023-05-15T06:26:50.355Z,94551.50
2023-05-15T06:28:51.985Z,94548.72
2023-05-15T06:30:53.569Z,94545.06
2023-05-15T06:32:55.086Z,94547.25
2023-05-15T06:34:56.566Z,94547.16
2023-05-15T06:36:58.131Z,94540.50
2023-05-15T06:38:59.622Z,94558.47
2023-05-15T06:41:01.058Z,94551.28
2023-05-15T06:43:02.524Z,94552.53
2023-05-15T06:45:04.220Z,94559.22
2023-05-15T06:47:06.094Z,94560.88
2023-05-15T06:49:07.741Z,94562.19
2023-05-15T06:51:10.831Z,94554.84
2023-05-15T06:53:14.393Z,94551.44
2023-05-15T06:55:16.182Z,94561.56
2023-05-15T06:57:18.007Z,94565.69
2023-05-15T06:59:19.524Z,94568.22
2023-05-15T07:01:22.244Z,94566.28
2023-05-15T07:03:23.902Z,94560.19
2023-05-15T07:05:25.508Z,94557.38
2023-05-15T07:07:27.168Z,94557.88
2023-05-15T07:09:28.876Z,94551.84
2023-05-15T07:11:30.437Z,94549.44
2023-05-15T07:13:31.891Z,94549.72
2023-05-15T07:15:33.326Z,94555.00
2023-05-15T07:17:35.277Z,94549.97
2023-05-15T07:19:36.997Z,94555.06
2023-05-15T07:21:39.343Z,94552.94
2023-05-15T07:23:40.730Z,94567.06
2023-05-15T07:25:42.183Z,94566.09
2023-05-15T07:27:43.674Z,94572.69
2023-05-15T07:29:45.171Z,94574.22
2023-05-15T07:31:46.645Z,94563.06
2023-05-15T07:33:48.172Z,94561.75
2023-05-15T07:35:50.882Z,94554.00
2023-05-15T07:37:52.370Z,94556.34
2023-05-15T07:39:53.914Z,94561.81
2023-05-15T07:41:55.458Z,94554.97
2023-05-15T07:43:56.927Z,94550.69
2023-05-15T07:45:58.434Z,94554.47
2023-05-15T07:48:00.149Z,94554.84
2023-05-15T07:50:01.838Z,94549.13
2023-05-15T07:52:03.291Z,94547.31
2023-05-15T07:54:04.835Z,94558.88
2023-05-15T07:56:06.308Z,94566.25
2023-05-15T07:58:08.213Z,94571.66
2023-05-15T08:00:12.873Z,94561.84
2023-05-15T08:02:14.476Z,94572.78
2023-05-15T08:04:16.000Z,94578.19
2023-05-15T08:06:17.563Z,94583.75
2023-05-15T08:08:19.045Z,94585.41
2023-05-15T08:10:20.623Z,94578.38
2023-05-15T08:12:22.179Z,94582.09
2023-05-15T08:14:23.667Z,94576.19
2023-05-15T08:16:25.296Z,94579.00
2023-05-15T08:18:26.957Z,94578.44
2023-05-15T08:20:28.480Z,94572.81
2023-05-15T08:22:30.635Z,94575.78
2023-05-15T08:24:32.159Z,94580.38
2023-05-15T08:26:33.779Z,94572.34
2023-05-15T08:28:35.239Z,94570.97
2023-05-15T08:30:36.692Z,94578.44
2023-05-15T08:32:38.249Z,94572.34
2023-05-15T08:34:39.774Z,94571.59
2023-05-15T08:36:41.260Z,94577.94
2023-05-15T08:38:42.718Z,94568.16
2023-05-15T08:40:46.213Z,94569.47
2023-05-15T08:42:48.886Z,94567.03
2023-05-15T08:44:50.638Z,94557.66
2023-05-15T08:46:52.548Z,94566.44
2023-05-15T08:48:54.003Z,94552.81
2023-05-15T08:50:58.536Z,94561.56
2023-05-15T08:53:01.666Z,94564.50
2023-05-15T08:55:03.768Z,94552.75
2023-05-15T08:57:05.461Z,94555.59
2023-05-15T08:59:06.939Z,94555.91
2023-05-15T09:01:08.457Z,94543.16
2023-05-15T09:03:14.158Z,94538.94
2023-05-15T09:05:15.869Z,94530.91
2023-05-15T09:07:17.363Z,94541.94
2023-05-15T09:09:18.813Z,94550.31
2023-05-15T09:11:21.777Z,94543.44
2023-05-15T09:13:23.336Z,94541.25
2023-05-15T09:15:25.593Z,94542.31
2023-05-15T09:17:27.322Z,94536.25
2023-05-15T09:19:28.894Z,94526.75
2023-05-15T09:21:33.857Z,94532.44
2023-05-15T09:23:35.295Z,94527.97
2023-05-15T09:25:38.242Z,94524.16
2023-05-15T09:27:43.180Z,94525.91
2023-05-15T09:29:45.279Z,94530.25
2023-05-15T09:31:47.366Z,94535.44
2023-05-15T09:33:49.400Z,94529.19
2023-05-15T09:35:51.285Z,94510.03
2023-05-15T09:37:57.515Z,94509.81
2023-05-15T09:40:11.846Z,94503.59
2023-05-15T09:42:13.955Z,94494.63
2023-05-15T09:44:21.414Z,94494.63
2023-05-15T09:46:23.747Z,94496.31
2023-05-15T09:48:25.392Z,94485.97
2023-05-15T09:50:33.004Z,94493.56
2023-05-15T09:52:34.455Z,94483.84
2023-05-15T09:54:36.065Z,94496.13
2023-05-15T09:56:37.670Z,94495.59
2023-05-15T09:58:39.212Z,94491.44
2023-05-15T10:00:47.770Z,94485.44
2023-05-15T10:02:50.642Z,94489.19
2023-05-15T10:04:56.544Z,94481.56
2023-05-15T10:06:57.993Z,94495.38
2023-05-15T10:09:00.165Z,94488.28
2023-05-15T10:11:01.736Z,94493.78
2023-05-15T10:13:05.819Z,94469.88
2023-05-15T10:15:07.438Z,94481.28
2023-05-15T10:17:08.919Z,94484.22
2023-05-15T10:19:10.903Z,94498.25
2023-05-15T10:21:12.462Z,94506.38
2023-05-15T10:23:13.920Z,94494.63
2023-05-15T10:25:28.652Z,94508.03
2023-05-15T10:27:30.712Z,94498.13
2023-05-15T10:29:32.230Z,94508.97
2023-05-15T10:31:34.454Z,94509.44
2023-05-15T10:33:35.955Z,94521.88
2023-05-15T10:35:38.379Z,94538.56
2023-05-15T10:37:40.608Z,94536.16
2023-05-15T10:39:42.111Z,94519.09
2023-05-15T10:41:43.587Z,94524.41
2023-05-15T10:43:45.033Z,94520.13
2023-05-15T10:45:46.828Z,94522.63
2023-05-15T10:47:48.410Z,94524.88
2023-05-15T10:49:49.904Z,94532.66
2023-05-15T10:51:52.127Z,94524.03
2023-05-15T10:53:53.900Z,94525.28
2023-05-15T10:55:55.489Z,94531.22
2023-05-15T10:57:57.265Z,94521.72
2023-05-15T10:59:58.721Z,94513.00
2023-05-15T11:02:19.143Z,94505.28
2023-05-15T11:04:20.855Z,94500.00
2023-05-15T11:06:28.401Z,94508.34
2023-05-15T11:08:30.355Z,94495.06
2023-05-15T11:10:31.834Z,94518.22
2023-05-15T11:12:53.583Z,94505.44
2023-05-15T11:14:55.099Z,94502.19
2023-05-15T11:16:58.044Z,94500.34
2023-05-15T11:18:59.523Z,94494.78
2023-05-15T11:21:01.088Z,94497.25
2023-05-15T11:23:02.956Z,94519.63
2023-05-15T11:25:12.602Z,94511.16
2023-05-15T11:27:17.575Z,94493.50
2023-05-15T11:29:19.504Z,94498.44
2023-05-15T11:31:21.153Z,94512.31
2023-05-15T11:33:22.659Z,94501.75
2023-05-15T11:35:26.990Z,94502.81
2023-05-15T11:37:28.419Z,94487.00
2023-05-15T11:39:29.935Z,94491.50
2023-05-15T11:41:31.883Z,94483.59
2023-05-15T11:43:33.592Z,94474.09
2023-05-15T11:45:39.417Z,94470.03
2023-05-15T11:47:40.949Z,94468.44
2023-05-15T11:49:42.498Z,94470.91
2023-05-15T11:51:44.002Z,94467.03
2023-05-15T11:53:45.609Z,94471.31
2023-05-15T11:55:47.104Z,94472.50
2023-05-15T11:57:48.879Z,94472.06
2023-05-15T11:59:53.737Z,94467.00
2023-05-15T12:01:55.209Z,94475.53
2023-05-15T12:03:56.870Z,94470.84
2023-05-15T12:06:00.325Z,94471.69
2023-05-15T12:08:02.380Z,94467.16
2023-05-15T12:10:04.025Z,94461.66
2023-05-15T12:12:08.307Z,94455.34
2023-05-15T12:14:12.943Z,94463.69
2023-05-15T12:16:14.442Z,94462.28
2023-05-15T12:18:15.974Z,94465.94
2023-05-15T12:20:17.956Z,94465.94
2023-05-15T12:22:19.493Z,94459.88
2023-05-15T12:24:21.518Z,94448.84
2023-05-15T12:26:23.264Z,94447.22
2023-05-15T12:28:24.818Z,94428.91
2023-05-15T12:30:27.086Z,94415.69
2023-05-15T12:32:30.127Z,94414.25
2023-05-15T12:34:31.702Z,94417.09
2023-05-15T12:36:33.270Z,94408.25
2023-05-15T12:38:35.116Z,94400.47
2023-05-15T12:40:36.954Z,94397.59
2023-05-15T12:42:42.193Z,94396.38
2023-05-15T12:44:44.205Z,94385.59
2023-05-15T12:46:46.267Z,94378.25
2023-05-15T12:48:47.836Z,94375.31
2023-05-15T12:50:50.121Z,94371.97
2023-05-15T12:52:52.944Z,94385.72
2023-05-15T12:54:54.477Z,94376.97
2023-05-15T12:56:57.480Z,94390.66
2023-05-15T12:58:59.232Z,94396.59
2023-05-15T13:01:03.202Z,94394.44
2023-05-15T13:03:05.036Z,94399.44
2023-05-15T13:05:07.201Z,94401.59
2023-05-15T13:07:08.706Z,94396.88
2023-05-15T13:09:10.173Z,94390.28
2023-05-15T13:11:13.019Z,94380.84
2023-05-15T13:13:14.811Z,94380.31
2023-05-15T13:15:25.541Z,94369.59
2023-05-15T13:17:29.439Z,94377.25
2023-05-15T13:19:30.974Z,94376.44
2023-05-15T13:21:33.039Z,94367.44
2023-05-15T13:23:34.502Z,94364.66
2023-05-15T13:25:36.138Z,94373.59
2023-05-15T13:27:37.554Z,94357.31
2023-05-15T13:29:39.015Z,94355.75
2023-05-15T13:31:40.527Z,94373.47
2023-05-15T13:33:42.058Z,94374.94
2023-05-15T13:35:43.522Z,94373.56
2023-05-15T13:37:44.986Z,94385.38
2023-05-15T13:39:46.436Z,94378.28
2023-05-15T13:41:47.941Z,94377.19
2023-05-15T13:43:49.484Z,94383.78
2023-05-15T13:45:51.006Z,94379.97
2023-05-15T13:47:52.723Z,94371.91
2023-05-15T13:49:54.258Z,94376.34
2023-05-15T13:51:55.733Z,94379.09
2023-05-15T13:53:57.242Z,94376.94
2023-05-15T13:58:17.418Z,94378.22
2023-05-15T14:00:19.813Z,94379.25
2023-05-15T14:02:23.520Z,94376.84
2023-05-15T14:04:25.114Z,94376.97
2023-05-15T14:06:27.890Z,94380.72
2023-05-15T14:08:29.404Z,94378.44
2023-05-15T14:10:30.944Z,94381.22
2023-05-15T14:12:32.660Z,94381.72
2023-05-15T14:14:34.139Z,94378.50
2023-05-15T14:16:35.653Z,94381.50
2023-05-15T14:18:37.236Z,94376.78
2023-05-15T14:20:38.883Z,94373.91
2023-05-15T14:22:40.418Z,94375.97
2023-05-15T14:24:41.914Z,94377.31
2023-05-15T14:26:44.470Z,94378.16
2023-05-15T14:28:46.191Z,94375.44
2023-05-15T14:30:47.617Z,94370.25
2023-05-15T14:32:49.088Z,94374.06
2023-05-15T14:34:50.677Z,94371.44
2023-05-15T14:36:52.167Z,94370.59
2023-05-15T14:38:53.591Z,94361.97
2023-05-15T14:40:55.021Z,94364.91
2023-05-15T14:42:56.460Z,94363.28
2023-05-15T14:44:57.989Z,94364.63
2023-05-15T14:47:06.964Z,94359.72
2023-05-15T14:49:08.452Z,94351.09
2023-05-15T14:51:09.988Z,94350.44
2023-05-15T14:53:11.467Z,94357.22
2023-05-15T14:55:12.986Z,94351.59
2023-05-15T14:57:16.307Z,94336.63
2023-05-15T14:59:17.763Z,94347.94
2023-05-15T15:01:19.543Z,94340.66
2023-05-15T15:03:22.097Z,94333.63
2023-05-15T15:05:23.744Z,94328.53
2023-05-15T15:07:28.990Z,94328.81
2023-05-15T15:09:30.531Z,94327.06
2023-05-15T15:11:32.062Z,94319.69
2023-05-15T15:13:33.536Z,94315.75
2023-05-15T15:15:35.101Z,94323.53
2023-05-15T15:17:36.621Z,94314.16
2023-05-15T15:19:38.141Z,94316.03
2023-05-15T15:21:39.795Z,94317.66
2023-05-15T15:23:41.206Z,94317.78
2023-05-15T15:25:42.672Z,94314.44
2023-05-15T15:27:44.283Z,94320.66
2023-05-15T15:29:45.733Z,94311.19
2023-05-15T15:31:47.229Z,94308.31
2023-05-15T15:33:48.729Z,94304.31
2023-05-15T15:35:50.258Z,94303.84
2023-05-15T15:37:52.083Z,94312.06
2023-05-15T15:39:53.615Z,94309.84
2023-05-15T15:41:55.150Z,94302.75
2023-05-15T15:43:56.606Z,94313.56
2023-05-15T15:45:58.088Z,94324.53
2023-05-15T15:47:59.800Z,94316.72
2023-05-15T15:50:01.347Z,94317.38
2023-05-15T15:52:02.811Z,94316.34
2023-05-15T15:54:04.391Z,94317.34
2023-05-15T15:56:06.692Z,94323.75
2023-05-15T15:58:08.238Z,94328.88
2023-05-15T16:00:10.014Z,94336.03
2023-05-15T16:02:11.779Z,94341.56
2023-05-15T16:04:13.421Z,94341.44
2023-05-15T16:06:15.064Z,94334.94
2023-05-15T16:08:16.662Z,94334.84
2023-05-15T16:10:18.192Z,94323.44
2023-05-15T16:12:19.683Z,94335.34
2023-05-15T16:14:21.408Z,94332.91
2023-05-15T16:16:22.934Z,94335.25
2023-05-15T16:18:24.451Z,94334.13
2023-05-15T16:20:26.218Z,94350.13
2023-05-15T16:22:27.873Z,94352.78
2023-05-15T16:24:29.483Z,94360.81
2023-05-15T16:26:31.031Z,94349.97
2023-05-15T16:28:32.503Z,94351.16
2023-05-15T16:30:48.264Z,94363.16
2023-05-15T16:32:50.929Z,94361.41
2023-05-15T16:34:52.480Z,94360.56
2023-05-15T16:36:53.952Z,94369.34
2023-05-15T16:38:55.548Z,94383.13
2023-05-15T16:40:57.155Z,94378.25
2023-05-15T16:42:58.800Z,94375.38
2023-05-15T16:45:00.473Z,94370.13
2023-05-15T16:47:02.035Z,94374.66
2023-05-15T16:49:03.839Z,94385.69
2023-05-15T16:51:05.500Z,94378.41
2023-05-15T16:53:07.418Z,94375.59
2023-05-15T16:55:08.973Z,94382.53
2023-05-15T16:57:10.606Z,94373.78
2023-05-15T16:59:12.104Z,94365.41
2023-05-15T17:01:13.560Z,94371.53
2023-05-15T17:03:15.198Z,94375.25
2023-05-15T17:05:17.384Z,94369.94
2023-05-15T17:07:18.838Z,94362.25
2023-05-15T17:09:21.265Z,94357.16
2023-05-15T17:11:22.750Z,94362.81
2023-05-15T17:13:25.483Z,94368.13
2023-05-15T17:15:28.624Z,94361.81
2023-05-15T17:17:30.218Z,94365.47
2023-05-15T17:19:32.552Z,94374.63
2023-05-15T17:21:35.053Z,94372.81
2023-05-15T17:23:36.537Z,94380.53
2023-05-15T17:25:37.966Z,94378.91
2023-05-15T17:27:41.536Z,94379.13
2023-05-15T17:29:43.277Z,94376.69
2023-05-15T17:31:45.648Z,94380.94
2023-05-15T17:33:47.820Z,94380.75
2023-05-15T17:35:49.401Z,94382.97
2023-05-15T17:37:51.686Z,94390.31
2023-05-15T17:39:54.608Z,94387.66
2023-05-15T17:41:56.068Z,94393.53
2023-05-15T17:43:57.493Z,94388.25
2023-05-15T17:46:00.528Z,94387.25
2023-05-15T17:48:04.179Z,94404.34
2023-05-15T17:50:06.182Z,94408.59
2023-05-15T17:52:07.770Z,94415.91
2023-05-15T17:54:09.243Z,94410.03
2023-05-15T17:56:10.859Z,94411.84
2023-05-15T17:58:12.327Z,94404.13
2023-05-15T18:00:14.540Z,94397.41
2023-05-15T18:02:16.017Z,94391.69
2023-05-15T18:04:17.566Z,94393.34
2023-05-15T18:06:19.044Z,94401.88
2023-05-15T18:08:20.636Z,94381.53
2023-05-15T18:10:22.115Z,94368.94
2023-05-15T18:12:23.656Z,94362.63
2023-05-15T18:14:25.092Z,94365.44
2023-05-15T18:16:26.853Z,94379.28
2023-05-15T18:18:28.518Z,94373.97
2023-05-15T18:20:30.035Z,94361.38
2023-05-15T18:22:31.642Z,94356.28
2023-05-15T18:24:33.099Z,94362.97
2023-05-15T18:26:34.602Z,94374.78
2023-05-15T18:28:36.157Z,94379.88
2023-05-15T18:30:37.567Z,94395.91
2023-05-15T18:32:39.238Z,94382.94
2023-05-15T18:34:40.899Z,94395.53
2023-05-15T18:36:42.549Z,94403.22
2023-05-15T18:38:43.984Z,94404.22
2023-05-15T18:40:48.653Z,94411.94
2023-05-15T18:42:50.253Z,94415.63
2023-05-15T18:44:51.996Z,94406.28
2023-05-15T18:46:53.481Z,94405.88
2023-05-15T18:48:55.044Z,94405.69
2023-05-15T18:50:56.493Z,94397.13
2023-05-15T18:52:57.988Z,94404.25
2023-05-15T18:55:00.563Z,94407.72
2023-05-15T18:57:02.091Z,94409.53
2023-05-15T18:59:03.563Z,94405.34
2023-05-15T19:01:05.032Z,94406.72
2023-05-15T19:03:08.352Z,94410.38
2023-05-15T19:05:10.126Z,94416.25
2023-05-15T19:07:11.602Z,94424.38
2023-05-15T19:09:13.078Z,94421.94
2023-05-15T19:11:15.634Z,94422.38
2023-05-15T19:13:17.340Z,94427.88
2023-05-15T19:15:19.682Z,94420.78
2023-05-15T19:17:21.656Z,94415.47
2023-05-15T19:19:23.624Z,94419.72
2023-05-15T19:21:25.360Z,94424.59
2023-05-15T19:23:26.851Z,94426.03
2023-05-15T19:25:28.394Z,94421.53
2023-05-15T19:27:29.954Z,94433.50
2023-05-15T19:29:32.178Z,94428.19
2023-05-15T19:31:33.912Z,94429.41
2023-05-15T19:33:35.568Z,94429.16
2023-05-15T19:35:37.642Z,94433.19
2023-05-15T19:37:39.334Z,94439.72
2023-05-15T19:39:41.077Z,94428.38
2023-05-15T19:41:42.775Z,94440.34
2023-05-15T19:43:46.512Z,94444.78
2023-05-15T19:45:47.946Z,94441.81
2023-05-15T19:47:49.469Z,94440.69
2023-05-15T19:49:51.001Z,94437.28
2023-05-15T19:51:52.895Z,94442.25
2023-05-15T19:53:54.422Z,94440.69
2023-05-15T19:55:56.556Z,94444.38
2023-05-15T19:57:57.996Z,94436.25
2023-05-15T19:59:59.471Z,94439.28
2023-05-15T20:02:01.788Z,94438.91
2023-05-15T20:04:03.468Z,94434.88
2023-05-15T20:06:05.135Z,94426.53
2023-05-15T20:08:06.605Z,94425.34
2023-05-15T20:10:09.164Z,94430.25
2023-05-15T20:12:11.039Z,94416.03
2023-05-15T20:14:13.959Z,94411.97
2023-05-15T20:16:16.720Z,94414.44
2023-05-15T20:18:18.561Z,94422.97
2023-05-15T20:20:20.073Z,94414.66
2023-05-15T20:22:21.533Z,94411.19
2023-05-15T20:24:25.823Z,94401.25
2023-05-15T20:26:27.420Z,94402.06
2023-05-15T20:28:29.028Z,94406.97
2023-05-15T20:30:30.477Z,94396.78
2023-05-15T20:32:32.115Z,94396.94
2023-05-15T20:34:34.539Z,94400.41
2023-05-15T20:36:38.989Z,94390.25
2023-05-15T20:38:40.601Z,94389.00
2023-05-15T20:40:42.052Z,94371.34
2023-05-15T20:42:43.458Z,94377.78
2023-05-15T20:44:45.323Z,94371.25
2023-05-15T20:46:46.814Z,94368.44
2023-05-15T20:48:48.459Z,94360.25
2023-05-15T20:50:53.178Z,94364.63
2023-05-15T20:52:54.689Z,94357.66
2023-05-15T20:54:56.168Z,94364.56
2023-05-15T20:56:57.590Z,94361.16
2023-05-15T20:58:59.878Z,94357.09
2023-05-15T21:01:01.643Z,94356.47
2023-05-15T21:03:03.329Z,94356.19
2023-05-15T21:05:04.958Z,94359.41
2023-05-15T21:07:06.954Z,94353.34
2023-05-15T21:09:08.751Z,94356.38
2023-05-15T21:11:10.223Z,94355.91
2023-05-15T21:13:12.040Z,94367.44
2023-05-15T21:15:13.546Z,94365.25
2023-05-15T21:17:15.144Z,94364.50
2023-05-15T21:19:16.726Z,94364.28
2023-05-15T21:21:18.596Z,94366.97
2023-05-15T21:23:21.295Z,94370.66
2023-05-15T21:25:22.827Z,94370.78
2023-05-15T21:27:24.326Z,94369.00
2023-05-15T21:29:25.768Z,94373.47
2023-05-15T21:31:27.649Z,94376.56
2023-05-15T21:33:29.199Z,94369.28
2023-05-15T21:35:31.842Z,94374.38
2023-05-15T21:37:33.430Z,94371.78
2023-05-15T21:39:34.949Z,94366.53
2023-05-15T21:41:36.433Z,94369.41
2023-05-15T21:43:37.895Z,94361.75
2023-05-15T21:45:39.433Z,94362.75
2023-05-15T21:47:40.963Z,94359.25
2023-05-15T21:49:42.426Z,94360.88
2023-05-15T21:51:43.955Z,94365.47
2023-05-15T21:53:45.743Z,94371.78
2023-05-15T21:55:48.343Z,94358.59
2023-05-15T21:57:50.263Z,94364.22
2023-05-15T21:59:51.690Z,94369.75
2023-05-15T22:01:53.252Z,94369.81
2023-05-15T22:03:54.815Z,94372.06
2023-05-15T22:05:56.500Z,94369.69
2023-05-15T22:07:58.057Z,94371.91
2023-05-15T22:09:59.638Z,94385.69
2023-05-15T22:12:01.102Z,94394.25
2023-05-15T22:14:03.110Z,94388.97
2023-05-15T22:16:04.669Z,94386.50
2023-05-15T22:18:06.223Z,94382.25
2023-05-15T22:20:11.468Z,94379.00
2023-05-15T22:22:12.903Z,94380.25
2023-05-15T22:24:14.365Z,94379.63
2023-05-15T22:26:15.983Z,94374.97
2023-05-15T22:28:17.585Z,94367.91
2023-05-15T22:30:19.147Z,94379.50
2023-05-15T22:32:20.751Z,94372.84
2023-05-15T22:34:22.315Z,94364.13
2023-05-15T22:36:23.795Z,94357.66
2023-05-15T22:38:25.380Z,94369.81
2023-05-15T22:40:27.276Z,94369.63
2023-05-15T22:42:29.114Z,94374.47
2023-05-15T22:44:30.604Z,94369.81
2023-05-15T22:46:32.113Z,94370.63
2023-05-15T22:48:34.170Z,94381.00
2023-05-15T22:50:36.239Z,94368.63
2023-05-15T22:52:38.427Z,94368.44
2023-05-15T22:54:40.219Z,94357.88
2023-05-15T22:56:42.089Z,94362.97
2023-05-15T22:58:43.647Z,94358.91
2023-05-15T23:00:45.423Z,94356.91
2023-05-15T23:02:46.922Z,94360.16
2023-05-15T23:04:48.423Z,94359.75
2023-05-15T23:06:49.915Z,94369.28
2023-05-15T23:08:51.569Z,94367.25
2023-05-15T23:10:53.423Z,94380.69
2023-05-15T23:12:55.128Z,94371.91
2023-05-15T23:14:56.552Z,94376.22
2023-05-15T23:16:57.999Z,94371.75
2023-05-15T23:19:00.015Z,94361.97
2023-05-15T23:21:02.542Z,94360.38
2023-05-15T23:23:04.084Z,94359.34
2023-05-15T23:25:06.241Z,94354.91
2023-05-15T23:27:07.964Z,94357.53
2023-05-15T23:29:09.603Z,94357.53
2023-05-15T23:31:12.840Z,94356.50
2023-05-15T23:33:14.436Z,94363.63
2023-05-15T23:35:16.070Z,94359.56
2023-05-15T23:37:17.591Z,94355.28
2023-05-15T23:39:19.038Z,94357.13
2023-05-15T23:41:22.106Z,94351.84
2023-05-15T23:43:23.574Z,94348.56
2023-05-15T23:45:25.051Z,94347.59
2023-05-15T23:47:26.569Z,94344.94
2023-05-15T23:49:28.067Z,94346.97
2023-05-15T23:51:29.749Z,94345.94
2023-05-15T23:53:31.353Z,94335.38
2023-05-15T23:55:33.194Z,94340.84
2023-05-15T23:57:34.695Z,94339.22
2023-05-15T23:59:36.361Z,94339.41
